createdAt,value
2018-12-25T00:00:54.891Z,103927.83
2018-12-25T00:03:58.395Z,103929.32
2018-12-25T00:07:01.864Z,103939.69
2018-12-25T00:10:05.740Z,103941.46
2018-12-25T00:13:09.291Z,103947.56
2018-12-25T00:16:13.942Z,103952.80
2018-12-25T00:19:17.445Z,103954.27
2018-12-25T00:22:21.072Z,103958.86
2018-12-25T00:25:24.716Z,103964.91
2018-12-25T00:28:28.289Z,103963.54
2018-12-25T00:31:32.057Z,103959.73
2018-12-25T00:34:35.698Z,103960.49
2018-12-25T00:37:39.318Z,103959.40
2018-12-25T00:40:42.765Z,103960.66
2018-12-25T00:43:46.491Z,103958.29
2018-12-25T00:46:50.358Z,103950.75
2018-12-25T00:49:53.905Z,103941.19
2018-12-25T00:52:57.421Z,103939.75
2018-12-25T00:56:01.316Z,103941.73
2018-12-25T00:59:04.866Z,103940.64
2018-12-25T01:02:08.339Z,103945.27
2018-12-25T01:05:11.985Z,103941.03
2018-12-25T01:08:15.772Z,103946.96
2018-12-25T01:11:19.222Z,103954.98
2018-12-25T01:14:22.714Z,103957.68
2018-12-25T01:17:26.385Z,103958.95
2018-12-25T01:20:30.014Z,103960.40
2018-12-25T01:23:33.537Z,103965.67
2018-12-25T01:26:37.293Z,103982.37
2018-12-25T01:29:40.737Z,103985.88
2018-12-25T01:32:44.205Z,103985.64
2018-12-25T01:35:47.807Z,103984.18
2018-12-25T01:38:51.363Z,103985.89
2018-12-25T01:41:54.899Z,103989.06
2018-12-25T01:44:58.381Z,104001.20
2018-12-25T01:48:01.915Z,103995.96
2018-12-25T01:51:05.562Z,104001.62
2018-12-25T01:54:09.117Z,104011.06
2018-12-25T01:57:12.830Z,104016.98
2018-12-25T02:00:16.397Z,104016.01
2018-12-25T02:03:19.923Z,104010.09
2018-12-25T02:06:23.413Z,104007.95
2018-12-25T02:09:26.933Z,103999.88
2018-12-25T02:12:30.454Z,103989.32
2018-12-25T02:15:33.930Z,103985.27
2018-12-25T02:18:37.592Z,103991.86
2018-12-25T02:21:41.125Z,103993.30
2018-12-25T02:24:44.710Z,103987.88
2018-12-25T02:27:49.538Z,103988.02
2018-12-25T02:30:53.063Z,103983.89
2018-12-25T02:33:56.548Z,103985.59
2018-12-25T02:36:59.963Z,103990.43
2018-12-25T02:40:03.721Z,103990.98
2018-12-25T02:43:07.139Z,103987.67
2018-12-25T02:46:10.680Z,103989.65
2018-12-25T02:49:14.262Z,103988.13
2018-12-25T02:52:17.732Z,103989.42
2018-12-25T02:55:21.260Z,103981.46
2018-12-25T02:58:24.761Z,103972.08
2018-12-25T03:01:28.324Z,103966.55
2018-12-25T03:04:31.887Z,103965.93
2018-12-25T03:07:35.425Z,103964.00
2018-12-25T03:10:39.210Z,103947.36
2018-12-25T03:13:42.733Z,103959.17
2018-12-25T03:16:46.321Z,103957.60
2018-12-25T03:19:49.785Z,103956.75
2018-12-25T03:22:53.301Z,103958.92
2018-12-25T03:25:56.703Z,103956.77
2018-12-25T03:29:00.214Z,103959.22
2018-12-25T03:32:03.835Z,103960.60
2018-12-25T03:35:07.423Z,103954.54
2018-12-25T03:38:11.862Z,103962.50
2018-12-25T03:41:15.405Z,103966.93
2018-12-25T03:44:18.909Z,103968.72
2018-12-25T03:47:22.469Z,103959.74
2018-12-25T03:50:25.852Z,103959.38
2018-12-25T03:53:29.404Z,103962.46
2018-12-25T03:56:33.040Z,103962.01
2018-12-25T03:59:36.572Z,103959.32
2018-12-25T04:02:39.995Z,103962.55
2018-12-25T04:05:43.392Z,103965.13
2018-12-25T04:08:46.882Z,103966.87
2018-12-25T04:11:50.396Z,103968.77
2018-12-25T04:14:53.903Z,103960.02
2018-12-25T04:17:57.394Z,103963.15
2018-12-25T04:21:01.025Z,103959.83
2018-12-25T04:24:04.753Z,103964.21
2018-12-25T04:27:08.696Z,103964.48
2018-12-25T04:30:12.219Z,103958.81
2018-12-25T04:33:15.606Z,103966.39
2018-12-25T04:36:18.999Z,103969.28
2018-12-25T04:39:22.461Z,103972.20
2018-12-25T04:42:25.820Z,103976.19
2018-12-25T04:45:29.302Z,103970.69
2018-12-25T04:48:32.798Z,103975.88
2018-12-25T04:51:36.374Z,103976.06
2018-12-25T04:54:39.821Z,103972.89
2018-12-25T04:57:43.375Z,103974.38
2018-12-25T05:00:46.970Z,103975.05
2018-12-25T05:03:50.517Z,103975.33
2018-12-25T05:06:54.035Z,103983.80
2018-12-25T05:09:57.736Z,103983.58
2018-12-25T05:13:01.245Z,103978.12
2018-12-25T05:16:04.834Z,103979.01
2018-12-25T05:19:08.541Z,103972.31
2018-12-25T05:22:12.127Z,103980.17
2018-12-25T05:25:15.776Z,103980.79
2018-12-25T05:28:19.339Z,103981.58
2018-12-25T05:31:23.001Z,103987.08
2018-12-25T05:34:26.699Z,103987.51
2018-12-25T05:37:31.237Z,103997.43
2018-12-25T05:40:34.979Z,103992.17
2018-12-25T05:43:38.678Z,103992.45
2018-12-25T05:46:42.382Z,103990.43
2018-12-25T05:49:46.935Z,103992.85
2018-12-25T05:52:51.502Z,103987.70
2018-12-25T05:55:55.103Z,103993.86
2018-12-25T05:58:58.602Z,103995.85
2018-12-25T06:02:02.228Z,104004.59
2018-12-25T06:05:06.074Z,104003.95
2018-12-25T06:08:09.766Z,104005.44
2018-12-25T06:11:13.377Z,104002.38
2018-12-25T06:14:17.112Z,103997.97
2018-12-25T06:17:20.809Z,104007.00
2018-12-25T06:20:24.499Z,104006.60
2018-12-25T06:23:28.007Z,104011.62
2018-12-25T06:26:31.612Z,104011.65
2018-12-25T06:29:35.137Z,104017.79
2018-12-25T06:32:38.885Z,104000.29
2018-12-25T06:35:42.428Z,103990.18
2018-12-25T06:38:46.045Z,103998.24
2018-12-25T06:41:49.700Z,104001.04
2018-12-25T06:44:53.320Z,103998.41
2018-12-25T06:47:57.021Z,104002.54
2018-12-25T06:51:04.022Z,104012.46
2018-12-25T06:54:04.234Z,104004.14
2018-12-25T06:57:07.808Z,103992.34
2018-12-25T07:00:11.346Z,103992.09
2018-12-25T07:03:14.925Z,103990.15
2018-12-25T07:06:18.530Z,103982.27
2018-12-25T07:09:22.187Z,103980.02
2018-12-25T07:12:25.769Z,103984.60
2018-12-25T07:15:33.254Z,103993.12
2018-12-25T07:18:32.872Z,104002.43
2018-12-25T07:21:36.478Z,104000.45
2018-12-25T07:24:40.216Z,104006.61
2018-12-25T07:27:43.621Z,104005.96
2018-12-25T07:30:47.265Z,104008.60
2018-12-25T07:33:50.851Z,104009.43
2018-12-25T07:36:54.429Z,104005.54
2018-12-25T07:39:58.301Z,104006.18
2018-12-25T07:43:01.957Z,104001.15
2018-12-25T07:46:05.649Z,104003.34
2018-12-25T07:49:09.259Z,104014.25
2018-12-25T07:52:12.982Z,104002.44
2018-12-25T07:55:16.534Z,103997.60
2018-12-25T07:58:20.138Z,103993.84
2018-12-25T08:01:23.850Z,103994.21
2018-12-25T08:04:27.462Z,103992.29
2018-12-25T08:07:31.042Z,103996.65
2018-12-25T08:10:34.751Z,103990.97
2018-12-25T08:13:38.381Z,103989.89
2018-12-25T08:16:41.940Z,103991.45
2018-12-25T08:19:45.603Z,103998.56
2018-12-25T08:22:49.209Z,103988.95
2018-12-25T08:25:52.787Z,103978.14
2018-12-25T08:28:56.353Z,103975.36
2018-12-25T08:31:59.946Z,103972.45
2018-12-25T08:35:03.636Z,103968.20
2018-12-25T08:38:07.210Z,103971.90
2018-12-25T08:41:11.792Z,103972.56
2018-12-25T08:44:15.397Z,103971.68
2018-12-25T08:47:18.897Z,103969.26
2018-12-25T08:50:22.599Z,103969.52
2018-12-25T08:53:26.301Z,103971.66
2018-12-25T08:56:29.900Z,103979.41
2018-12-25T08:59:33.502Z,103985.27
2018-12-25T09:02:36.994Z,103988.68
2018-12-25T09:05:40.611Z,103990.77
2018-12-25T09:08:44.245Z,103985.64
2018-12-25T09:11:47.848Z,103990.67
2018-12-25T09:14:51.374Z,103988.67
2018-12-25T09:17:55.229Z,103983.72
2018-12-25T09:20:58.847Z,103986.54
2018-12-25T09:24:02.458Z,103989.57
2018-12-25T09:27:06.160Z,103994.49
2018-12-25T09:30:09.647Z,103994.47
2018-12-25T09:33:13.253Z,103998.93
2018-12-25T09:36:16.842Z,103999.95
2018-12-25T09:39:21.760Z,104005.05
2018-12-25T09:42:25.296Z,104007.84
2018-12-25T09:45:28.939Z,104004.40
2018-12-25T09:48:32.486Z,104006.99
2018-12-25T09:51:36.093Z,104005.95
2018-12-25T09:54:39.605Z,103999.71
2018-12-25T09:57:43.201Z,104007.64
2018-12-25T10:00:46.811Z,104002.12
2018-12-25T10:03:50.440Z,104004.77
2018-12-25T10:06:53.927Z,104006.66
2018-12-25T10:09:57.909Z,104012.35
2018-12-25T10:13:01.537Z,104011.27
2018-12-25T10:16:05.229Z,104009.34
2018-12-25T10:19:10.155Z,104005.53
2018-12-25T10:22:13.763Z,104003.82
2018-12-25T10:25:17.366Z,104003.68
2018-12-25T10:28:24.862Z,103999.60
2018-12-25T10:31:28.233Z,103991.64
2018-12-25T10:34:31.968Z,103994.09
2018-12-25T10:37:35.464Z,103997.42
2018-12-25T10:40:38.889Z,103989.28
2018-12-25T10:43:42.584Z,103981.53
2018-12-25T10:46:46.243Z,103979.46
2018-12-25T10:49:49.759Z,103974.42
2018-12-25T10:52:53.395Z,103974.94
2018-12-25T10:55:57.288Z,103977.31
2018-12-25T10:59:00.804Z,103970.53
2018-12-25T11:02:04.635Z,103966.59
2018-12-25T11:05:15.695Z,103962.16
2018-12-25T11:08:20.611Z,103953.80
2018-12-25T11:11:24.150Z,103945.68
2018-12-25T11:14:27.548Z,103934.72
2018-12-25T11:17:31.022Z,103931.14
2018-12-25T11:20:35.230Z,103926.38
2018-12-25T11:23:39.247Z,103916.91
2018-12-25T11:26:42.753Z,103914.55
2018-12-25T11:29:46.358Z,103905.05
2018-12-25T11:32:50.849Z,103894.93
2018-12-25T11:35:54.437Z,103889.65
2018-12-25T11:38:58.085Z,103882.66
2018-12-25T11:42:01.740Z,103878.12
2018-12-25T11:45:05.378Z,103873.04
2018-12-25T11:48:09.015Z,103876.97
2018-12-25T11:51:12.510Z,103877.42
2018-12-25T11:54:15.908Z,103877.02
2018-12-25T11:57:20.394Z,103876.17
2018-12-25T12:00:23.841Z,103880.45
2018-12-25T12:03:29.052Z,103879.65
2018-12-25T12:06:32.895Z,103891.72
2018-12-25T12:09:36.685Z,103896.76
2018-12-25T12:12:40.202Z,103903.84
2018-12-25T12:15:43.885Z,103904.19
2018-12-25T12:18:47.487Z,103905.11
2018-12-25T12:21:51.089Z,103896.10
2018-12-25T12:24:54.770Z,103896.12
2018-12-25T12:27:58.244Z,103892.59
2018-12-25T12:31:01.951Z,103889.95
2018-12-25T12:34:05.641Z,103895.12
2018-12-25T12:37:12.118Z,103890.17
2018-12-25T12:40:15.835Z,103890.25
2018-12-25T12:43:20.213Z,103890.86
2018-12-25T12:46:23.882Z,103890.00
2018-12-25T12:49:28.720Z,103888.46
2018-12-25T12:52:32.366Z,103888.74
2018-12-25T12:55:37.793Z,103890.24
2018-12-25T12:58:43.221Z,103883.70
2018-12-25T13:01:48.186Z,103884.74
2018-12-25T13:04:51.674Z,103887.56
2018-12-25T13:07:55.104Z,103892.53
2018-12-25T13:10:58.583Z,103895.08
2018-12-25T13:14:01.979Z,103896.77
2018-12-25T13:17:05.451Z,103899.52
2018-12-25T13:20:09.149Z,103902.75
2018-12-25T13:23:12.690Z,103896.29
2018-12-25T13:26:16.064Z,103893.97
2018-12-25T13:29:19.497Z,103905.74
2018-12-25T13:32:22.973Z,103912.57
2018-12-25T13:35:26.448Z,103904.21
2018-12-25T13:38:30.137Z,103901.63
2018-12-25T13:41:33.764Z,103901.62
2018-12-25T13:44:37.299Z,103903.03
2018-12-25T13:47:40.949Z,103899.70
2018-12-25T13:50:44.303Z,103898.01
2018-12-25T13:53:47.910Z,103899.90
2018-12-25T13:56:51.482Z,103906.13
2018-12-25T13:59:55.048Z,103908.27
2018-12-25T14:02:58.519Z,103904.21
2018-12-25T14:06:02.128Z,103906.06
2018-12-25T14:09:07.576Z,103909.72
2018-12-25T14:12:11.104Z,103905.12
2018-12-25T14:15:14.552Z,103914.33
2018-12-25T14:18:18.009Z,103916.61
2018-12-25T14:21:21.510Z,103913.14
2018-12-25T14:24:25.053Z,103914.22
2018-12-25T14:27:28.693Z,103925.87
2018-12-25T14:30:32.315Z,103932.12
2018-12-25T14:33:35.841Z,103933.03
2018-12-25T14:36:39.468Z,103947.63
2018-12-25T14:39:44.087Z,103943.44
2018-12-25T14:42:47.653Z,103948.83
2018-12-25T14:45:51.183Z,103950.01
2018-12-25T14:48:59.210Z,103946.43
2018-12-25T14:52:02.740Z,103942.46
2018-12-25T14:55:06.477Z,103945.16
2018-12-25T14:58:10.124Z,103939.73
2018-12-25T15:01:13.717Z,103944.54
2018-12-25T15:04:17.366Z,103940.32
2018-12-25T15:07:21.063Z,103935.51
2018-12-25T15:10:24.871Z,103940.13
2018-12-25T15:13:28.633Z,103933.42
2018-12-25T15:16:32.219Z,103939.40
2018-12-25T15:19:36.144Z,103941.45
2018-12-25T15:22:40.722Z,103934.13
2018-12-25T15:25:43.550Z,103934.18
2018-12-25T15:28:47.118Z,103928.91
2018-12-25T15:31:50.667Z,103933.35
2018-12-25T15:34:55.936Z,103932.49
2018-12-25T15:37:59.324Z,103944.97
2018-12-25T15:41:02.743Z,103946.71
2018-12-25T15:44:06.194Z,103942.11
2018-12-25T15:47:09.648Z,103942.21
2018-12-25T15:50:13.257Z,103942.47
2018-12-25T15:53:16.718Z,103940.87
2018-12-25T15:56:20.259Z,103942.40
2018-12-25T15:59:23.673Z,103937.11
2018-12-25T16:02:27.247Z,103938.90
2018-12-25T16:05:30.759Z,103947.50
2018-12-25T16:08:34.153Z,103944.73
2018-12-25T16:11:37.887Z,103946.14
2018-12-25T16:14:41.349Z,103938.87
2018-12-25T16:17:44.896Z,103943.34
2018-12-25T16:20:48.358Z,103941.37
2018-12-25T16:23:51.781Z,103945.30
2018-12-25T16:26:55.175Z,103954.66
2018-12-25T16:29:58.679Z,103946.41
2018-12-25T16:33:02.097Z,103945.35
2018-12-25T16:36:05.627Z,103949.70
2018-12-25T16:39:09.160Z,103950.88
2018-12-25T16:42:12.689Z,103940.19
2018-12-25T16:45:16.197Z,103945.82
2018-12-25T16:48:19.667Z,103940.49
2018-12-25T16:51:23.198Z,103941.26
2018-12-25T16:54:26.816Z,103944.20
2018-12-25T16:57:30.341Z,103940.67
2018-12-25T17:00:33.706Z,103945.43
2018-12-25T17:03:37.252Z,103936.98
2018-12-25T17:06:40.864Z,103936.58
2018-12-25T17:09:44.390Z,103933.50
2018-12-25T17:12:47.916Z,103938.62
2018-12-25T17:15:51.418Z,103938.76
2018-12-25T17:18:55.179Z,103938.62
2018-12-25T17:21:59.494Z,103934.72
2018-12-25T17:25:03.125Z,103928.25
2018-12-25T17:28:07.265Z,103927.43
2018-12-25T17:31:10.929Z,103937.58
2018-12-25T17:34:14.577Z,103946.28
2018-12-25T17:37:18.047Z,103938.67
2018-12-25T17:40:21.748Z,103939.94
2018-12-25T17:43:25.412Z,103937.31
2018-12-25T17:46:28.978Z,103939.63
2018-12-25T17:49:32.567Z,103939.44
2018-12-25T17:52:36.804Z,103942.58
2018-12-25T17:55:40.526Z,103944.35
2018-12-25T17:58:44.256Z,103944.15
2018-12-25T18:01:48.153Z,103944.61
2018-12-25T18:04:52.166Z,103939.53
2018-12-25T18:07:55.768Z,103934.16
2018-12-25T18:11:00.362Z,103940.64
2018-12-25T18:14:04.258Z,103933.06
2018-12-25T18:17:07.683Z,103934.38
2018-12-25T18:20:11.105Z,103929.43
2018-12-25T18:23:14.721Z,103932.07
2018-12-25T18:26:18.284Z,103932.79
2018-12-25T18:29:22.186Z,103935.64
2018-12-25T18:32:25.712Z,103923.40
2018-12-25T18:35:30.241Z,103919.23
2018-12-25T18:38:33.698Z,103928.59
2018-12-25T18:41:37.207Z,103925.92
2018-12-25T18:44:40.763Z,103917.83
2018-12-25T18:47:44.350Z,103919.22
2018-12-25T18:50:47.759Z,103910.43
2018-12-25T18:53:51.313Z,103908.11
2018-12-25T18:56:54.861Z,103916.63
2018-12-25T18:59:58.265Z,103905.64
2018-12-25T19:03:01.866Z,103908.44
2018-12-25T19:06:05.496Z,103909.78
2018-12-25T19:09:08.884Z,103896.66
2018-12-25T19:12:12.395Z,103891.33
2018-12-25T19:15:23.767Z,103893.88
2018-12-25T19:18:27.499Z,103893.21
2018-12-25T19:21:31.394Z,103891.19
2018-12-25T19:24:36.418Z,103888.74
2018-12-25T19:27:38.473Z,103886.42
2018-12-25T19:30:42.171Z,103894.04
2018-12-25T19:33:45.707Z,103905.15
2018-12-25T19:36:49.329Z,103907.41
2018-12-25T19:39:52.978Z,103903.04
2018-12-25T19:42:56.469Z,103909.41
2018-12-25T19:46:00.041Z,103906.38
2018-12-25T19:49:03.613Z,103908.84
2018-12-25T19:52:07.201Z,103904.75
2018-12-25T19:55:10.680Z,103900.87
2018-12-25T19:58:14.404Z,103901.13
2018-12-25T20:01:17.996Z,103901.83
2018-12-25T20:04:37.935Z,103902.69
2018-12-25T20:10:07.706Z,103903.22
2018-12-25T20:13:24.166Z,103889.66
2018-12-25T20:16:45.761Z,103894.90
2018-12-25T20:20:10.137Z,103897.43
2018-12-25T20:24:26.558Z,103892.14
2018-12-25T20:27:58.796Z,103887.90
2018-12-25T20:32:47.163Z,103884.87
2018-12-25T20:36:43.859Z,103882.28
2018-12-25T20:40:07.195Z,103883.26
2018-12-25T20:44:20.453Z,103885.15
2018-12-25T20:47:57.919Z,103889.94
2018-12-25T20:51:13.218Z,103888.37
2018-12-25T20:54:35.622Z,103886.31
2018-12-25T20:57:54.305Z,103876.99
2018-12-25T21:01:09.495Z,103869.73
2018-12-25T21:05:22.675Z,103855.43
2018-12-25T21:12:51.760Z,103849.69
2018-12-25T21:17:02.898Z,103851.23
2018-12-25T21:20:31.373Z,103856.00
2018-12-25T21:23:46.180Z,103849.59
2018-12-25T21:27:01.003Z,103850.15
2018-12-25T21:30:07.896Z,103841.49
2018-12-25T21:33:11.595Z,103842.13
2018-12-25T21:36:16.323Z,103837.54
2018-12-25T21:39:20.892Z,103837.07
2018-12-25T21:42:24.327Z,103835.83
2018-12-25T21:45:28.284Z,103834.32
2018-12-25T21:48:31.817Z,103824.16
2018-12-25T21:51:35.288Z,103837.01
2018-12-25T21:54:38.756Z,103835.21
2018-12-25T21:57:42.291Z,103840.05
2018-12-25T22:00:45.914Z,103843.32
2018-12-25T22:03:49.500Z,103842.38
2018-12-25T22:06:53.072Z,103858.20
2018-12-25T22:09:56.700Z,103853.47
2018-12-25T22:13:00.284Z,103852.22
2018-12-25T22:16:03.939Z,103854.25
2018-12-25T22:19:07.473Z,103845.91
2018-12-25T22:22:11.202Z,103842.04
2018-12-25T22:25:14.841Z,103835.67
2018-12-25T22:28:18.467Z,103830.46
2018-12-25T22:31:22.022Z,103834.29
2018-12-25T22:34:25.654Z,103837.59
2018-12-25T22:37:29.169Z,103843.83
2018-12-25T22:40:33.772Z,103844.98
2018-12-25T22:43:37.406Z,103849.17
2018-12-25T22:46:40.915Z,103847.16
2018-12-25T22:49:44.471Z,103850.39
2018-12-25T22:52:48.934Z,103862.42
2018-12-25T22:55:52.503Z,103867.47
2018-12-25T22:58:56.020Z,103875.11
2018-12-25T23:01:59.631Z,103872.62
2018-12-25T23:05:03.265Z,103871.01
2018-12-25T23:08:06.942Z,103875.15
2018-12-25T23:11:10.453Z,103866.57
2018-12-25T23:14:14.004Z,103869.83
2018-12-25T23:17:17.448Z,103864.80
2018-12-25T23:20:28.473Z,103867.89
2018-12-25T23:23:25.612Z,103862.71
2018-12-25T23:26:29.183Z,103855.06
2018-12-25T23:29:33.701Z,103857.06
2018-12-25T23:32:37.316Z,103861.87
2018-12-25T23:35:40.862Z,103851.84
2018-12-25T23:38:44.331Z,103842.17
2018-12-25T23:41:47.927Z,103835.83
2018-12-25T23:44:51.542Z,103819.01
2018-12-25T23:47:55.154Z,103819.19
2018-12-25T23:50:58.758Z,103824.23
2018-12-25T23:54:03.450Z,103825.60
2018-12-25T23:57:07.059Z,103821.68
